Airfield :
LOGIN :

Register | Disclaimer

   EN    FR    IT 

 










Legend :    VFR   Marginal VFR   IFR   Intensive IFR   Very Intensive IFR
Visi :
Ceiling :
>= 8 km
>= 3000ft
5 to 8 km
1000 to 3000 ft
1500m to 5 km
500 to 1000 ft
800 to 1500m
200 to 500 ft
< 800m
< 200 ft
Symbols :   Thunderstorms  Fog  Heavy snow  Heavy precipitations  Wind > 20 kt
SIGMETs :     Misc.  Thunderstorms  Icing  Turbulence  Mountain Waves  Volcanic Ashes






- Airport Elevation : 154 ft
- IATA code : SZZ


EPSC - Szczecin Goleniow

CURRENT METAR :
  • 011300Z 23013KT 200V270 9999 FEW032 OVC047 07/M00 Q1016

EXPIRED METARs :
  • 011230Z 23013KT 200V260 9999 FEW026 SCT031 OVC045 07/M01 Q1016
  • 011200Z 23012KT 200V260 9999 BKN025 BKN029 OVC043 06/00 Q1016
  • 011130Z 24012KT 210V270 9999 SCT026 OVC043 06/M01 Q1017
  • 011100Z 24013KT 200V270 9999 SCT026 SCT033 OVC041 06/M01 Q1017
  • 011030Z 24013KT 200V270 9999 SCT022 BKN025 BKN030 05/M02 Q1017

TAF TAF EPSC
Valid from the 01 at 12:00 until the 02 at 12:00 UTC


011130Z 0112/0212 24012KT 9999 BKN025
TEMPO 0112/0115 24015G25KT
BECMG 0202/0204 BKN012
TEMPO 0203/0207 BKN007
BECMG 0209/0211 BKN025



MET'MAP, your aeronautical weather chart ! - Copyright ORBIFLY December 2007 - Disclaimer

ORBIFLY MET'MAP TEAM :

Programming & Development : Alexandra Zaïnal
Concept & original design : Baudouin d'Aumeries
Assistance for programming : Marc-Olivier Méhu
Technical & hardware support : Manuel Goepfert

Contact : metmap@orbifly.com




SOURCES & CREDITS :

   NOAA